Time;durP1;ratioP1;P1;durP2;ratioP2;P2;SDS_P1;SDS_P2;PMS_P1;PMS_P2;Temp;Humidity;BMP_temperature;BMP_pressure;BME280_temperature;BME280_humidity;BME280_pressure;Samples;Min_cycle;Max_cycle;Signal;HPM_P1;HPM_P2
2021/10/29 00:01:05;;;;;;;41.40;23.05;;;;;;;1.30;100.00;93924.66;5090030;28;20044;-84
2021/10/29 00:03:32;;;;;;;36.30;21.42;;;;;;;1.17;100.00;93873.53;5088300;28;20051;-83
2021/10/29 00:06:00;;;;;;;33.38;19.95;;;;;;;1.33;100.00;93872.97;5088002;28;20052;-83
2021/10/29 00:08:27;;;;;;;33.90;20.77;;;;;;;1.64;100.00;93902.34;5089506;28;20055;-83
2021/10/29 00:10:54;;;;;;;32.20;19.58;;;;;;;1.70;100.00;93904.31;5090763;28;20055;-84
2021/10/29 00:13:21;;;;;;;31.45;19.05;;;;;;;1.67;100.00;93892.72;5087229;28;20402;-84
2021/10/29 00:15:48;;;;;;;31.95;18.85;;;;;;;1.42;100.00;93856.97;5088508;28;20171;-84
2021/10/29 00:18:15;;;;;;;29.40;17.23;;;;;;;1.89;100.00;93905.22;5089993;28;20056;-83
2021/10/29 00:20:42;;;;;;;27.73;15.73;;;;;;;1.95;100.00;93915.56;5090043;28;20051;-83
2021/10/29 00:23:10;;;;;;;24.73;15.35;;;;;;;1.73;100.00;93876.97;5089549;28;20503;-83
2021/10/29 00:25:37;;;;;;;25.20;14.90;;;;;;;1.84;100.00;93881.09;5108778;28;20074;-83
2021/10/29 00:28:05;;;;;;;31.40;17.02;;;;;;;2.04;100.00;93913.16;5109105;28;20047;-83
2021/10/29 00:30:31;;;;;;;24.88;14.75;;;;;;;2.04;100.00;93911.41;5100256;28;20098;-83
2021/10/29 00:32:59;;;;;;;27.92;15.13;;;;;;;2.02;100.00;93905.69;5089518;28;20043;-83
2021/10/29 00:35:25;;;;;;;25.50;14.05;;;;;;;2.01;100.00;93904.09;5089492;28;20075;-82
2021/10/29 00:37:53;;;;;;;21.80;11.60;;;;;;;2.05;100.00;93907.97;5089176;28;20530;-82
2021/10/29 00:40:21;;;;;;;22.85;13.07;;;;;;;1.92;100.00;93884.66;5089317;28;20056;-82
2021/10/29 00:42:48;;;;;;;27.17;15.23;;;;;;;1.93;100.00;93892.13;5089350;28;20158;-82
2021/10/29 00:45:15;;;;;;;22.48;13.43;;;;;;;1.80;100.00;93866.31;5089659;28;20143;-83
2021/10/29 00:47:42;;;;;;;20.23;11.90;;;;;;;1.42;100.00;93813.94;5089455;28;20058;-82
2021/10/29 00:50:10;;;;;;;19.65;11.45;;;;;;;1.77;100.00;93871.66;5089161;28;20097;-83
2021/10/29 00:52:36;;;;;;;24.58;12.60;;;;;;;1.79;100.00;93885.78;5088949;28;20139;-83
2021/10/29 00:55:05;;;;;;;24.35;15.48;;;;;;;1.40;100.00;93837.78;5089304;28;20052;-83
2021/10/29 00:57:35;;;;;;;16.90;10.45;;;;;;;1.64;100.00;93892.22;5089344;28;20060;-83
2021/10/29 01:00:02;;;;;;;22.20;11.75;;;;;;;1.35;100.00;93855.13;5088660;28;20057;-84
2021/10/29 01:02:29;;;;;;;21.92;12.75;;;;;;;1.42;100.00;93884.00;5089511;28;20101;-84
2021/10/29 01:04:58;;;;;;;24.70;11.68;;;;;;;1.33;100.00;93867.91;5089317;28;20055;-84
2021/10/29 01:07:25;;;;;;;24.38;12.35;;;;;;;1.39;100.00;93864.81;5089344;28;20090;-84
2021/10/29 01:09:51;;;;;;;23.05;12.40;;;;;;;1.51;100.00;93885.72;5089421;28;20480;-85
2021/10/29 01:12:19;;;;;;;20.65;11.68;;;;;;;1.39;100.00;93857.22;5088885;28;20139;-84
2021/10/29 01:14:53;;;;;;;21.08;12.65;;;;;;;1.34;100.00;93846.72;5089421;28;20198;-84
2021/10/29 01:17:20;;;;;;;16.77;10.80;;;;;;;1.39;100.00;93856.44;5088862;28;20048;-84
2021/10/29 01:19:51;;;;;;;18.17;11.55;;;;;;;1.26;100.00;93841.53;5088947;28;20517;-84
2021/10/29 01:22:19;;;;;;;18.63;10.35;;;;;;;1.45;100.00;93879.47;5089197;28;20063;-84
2021/10/29 01:24:46;;;;;;;18.83;11.30;;;;;;;1.44;100.00;93864.44;5089450;28;20509;-84
2021/10/29 01:27:15;;;;;;;21.77;11.95;;;;;;;1.37;100.00;93845.63;5089436;28;20056;-84
2021/10/29 01:29:42;;;;;;;27.65;15.98;;;;;;;1.33;100.00;93858.59;5089306;28;20051;-84
2021/10/29 01:32:10;;;;;;;23.05;15.05;;;;;;;1.17;100.00;93826.22;5089118;28;20072;-84
2021/10/29 01:34:39;;;;;;;22.40;13.93;;;;;;;1.31;100.00;93847.78;5089512;28;20075;-84
2021/10/29 01:37:07;;;;;;;26.27;14.80;;;;;;;1.22;100.00;93827.56;5089409;28;20093;-84
2021/10/29 01:39:37;;;;;;;20.40;12.20;;;;;;;1.44;100.00;93860.16;5089160;28;20487;-84
2021/10/29 01:42:04;;;;;;;21.98;13.18;;;;;;;1.49;100.00;93874.94;5089460;28;20080;-84
2021/10/29 01:44:31;;;;;;;21.33;13.20;;;;;;;1.18;100.00;93829.56;5089176;28;20526;-83
2021/10/29 01:46:58;;;;;;;23.40;15.45;;;;;;;1.51;100.00;93870.53;5088713;28;20497;-83
2021/10/29 01:49:25;;;;;;;21.65;13.75;;;;;;;1.22;100.00;93837.69;5088923;28;20048;-82
2021/10/29 01:51:52;;;;;;;19.98;12.57;;;;;;;1.33;100.00;93851.00;5088909;28;20047;-82
2021/10/29 01:54:18;;;;;;;16.85;10.20;;;;;;;1.36;100.00;93857.50;5089110;28;20056;-82
2021/10/29 01:56:47;;;;;;;15.77;10.25;;;;;;;1.29;100.00;93848.88;5089011;28;20416;-82
2021/10/29 01:59:14;;;;;;;15.32;11.20;;;;;;;1.29;100.00;93853.94;5088844;28;20510;-82
2021/10/29 02:01:41;;;;;;;18.08;10.18;;;;;;;1.32;100.00;93872.19;5089135;28;20094;-82
2021/10/29 02:04:08;;;;;;;15.25;10.02;;;;;;;1.31;100.00;93869.78;5090085;28;20487;-82
2021/10/29 02:06:35;;;;;;;17.48;9.75;;;;;;;0.99;100.00;93820.28;5092762;28;20405;-82
2021/10/29 02:09:02;;;;;;;14.38;8.73;;;;;;;1.32;100.00;93877.25;5092194;28;20048;-82
2021/10/29 02:11:28;;;;;;;14.13;8.95;;;;;;;1.28;100.00;93870.84;5093001;28;20047;-81
2021/10/29 02:13:57;;;;;;;13.93;8.30;;;;;;;1.23;100.00;93878.03;5092785;28;20132;-82
2021/10/29 02:16:23;;;;;;;15.77;9.77;;;;;;;1.14;100.00;93869.53;5092659;28;20514;-82
2021/10/29 02:18:50;;;;;;;26.95;14.88;;;;;;;1.17;100.00;93881.13;5092466;28;20047;-81
2021/10/29 02:21:17;;;;;;;29.73;15.45;;;;;;;1.11;100.00;93861.41;5092292;28;20055;-82
2021/10/29 02:23:44;;;;;;;19.58;11.63;;;;;;;1.17;100.00;93871.78;5092411;28;20055;-83
2021/10/29 02:26:11;;;;;;;21.33;12.73;;;;;;;1.14;100.00;93874.59;5092510;28;20044;-82
2021/10/29 02:28:38;;;;;;;20.83;13.38;;;;;;;1.09;100.00;93871.66;5092251;28;20062;-82
2021/10/29 02:31:06;;;;;;;16.20;11.27;;;;;;;1.13;100.00;93867.13;5092070;28;20150;-81
2021/10/29 02:33:33;;;;;;;41.80;20.08;;;;;;;1.01;100.00;93869.81;5091988;28;20040;-82
2021/10/29 02:36:00;;;;;;;21.02;12.75;;;;;;;1.08;100.00;93864.22;5092066;28;20456;-82
2021/10/29 02:38:26;;;;;;;16.10;10.68;;;;;;;0.85;100.00;93840.00;5092100;28;20067;-82
2021/10/29 02:40:53;;;;;;;19.55;12.70;;;;;;;1.00;100.00;93875.81;5091672;28;20054;-81
2021/10/29 02:43:21;;;;;;;20.45;12.13;;;;;;;1.00;100.00;93875.81;5091625;28;20052;-82
2021/10/29 02:45:47;;;;;;;21.08;12.93;;;;;;;0.93;100.00;93852.78;5091872;28;20044;-82
2021/10/29 02:48:16;;;;;;;26.42;15.45;;;;;;;0.97;100.00;93855.03;5091994;28;20040;-83
2021/10/29 02:50:43;;;;;;;29.70;18.00;;;;;;;1.09;100.00;93868.31;5092238;28;20044;-82
2021/10/29 02:53:09;;;;;;;31.13;18.23;;;;;;;1.06;100.00;93869.41;5091872;28;20059;-81
2021/10/29 02:55:36;;;;;;;25.40;15.02;;;;;;;1.02;100.00;93871.41;5087849;28;20070;-81
2021/10/29 02:58:04;;;;;;;27.30;15.63;;;;;;;1.01;100.00;93874.06;5089519;28;20507;-81
2021/10/29 03:00:31;;;;;;;25.13;14.45;;;;;;;1.02;100.00;93868.09;5091116;28;20052;-81
2021/10/29 03:02:59;;;;;;;28.08;15.30;;;;;;;1.01;100.00;93864.75;5091291;28;20060;-81
2021/10/29 03:05:27;;;;;;;26.88;15.73;;;;;;;0.89;100.00;93853.19;5091350;28;20388;-81
2021/10/29 03:07:54;;;;;;;26.00;15.18;;;;;;;0.91;100.00;93863.94;5091507;28;20048;-82
2021/10/29 03:10:21;;;;;;;19.42;12.50;;;;;;;0.84;100.00;93848.53;5091260;28;20047;-82
2021/10/29 03:12:48;;;;;;;15.20;9.32;;;;;;;0.96;100.00;93874.47;5091061;28;20048;-81
2021/10/29 03:15:15;;;;;;;16.10;8.65;;;;;;;0.86;100.00;93879.53;5091528;28;20150;-81
2021/10/29 03:17:41;;;;;;;15.20;8.43;;;;;;;0.82;100.00;93873.16;5090668;28;20488;-81
2021/10/29 03:20:10;;;;;;;14.93;9.82;;;;;;;0.72;100.00;93865.56;5090777;28;20438;-81
2021/10/29 03:22:39;;;;;;;33.40;19.67;;;;;;;0.68;100.00;93869.28;5091144;28;20043;-81
2021/10/29 03:25:07;;;;;;;23.75;15.55;;;;;;;0.79;100.00;93870.91;5091033;28;20126;-81
2021/10/29 03:27:34;;;;;;;18.35;12.82;;;;;;;0.76;100.00;93859.31;5091140;28;20044;-81
2021/10/29 03:30:02;;;;;;;25.50;15.25;;;;;;;0.61;100.00;93861.41;5090736;28;20047;-81
2021/10/29 03:32:28;;;;;;;21.23;12.82;;;;;;;0.59;100.00;93854.88;5090970;28;20052;-81
2021/10/29 03:34:57;;;;;;;18.50;12.90;;;;;;;0.72;100.00;93857.16;5090912;28;20411;-81
2021/10/29 03:37:53;;;;;;;18.95;11.95;;;;;;;0.76;100.00;93871.97;5090885;28;20132;-82
2021/10/29 03:40:27;;;;;;;26.38;16.90;;;;;;;0.60;100.00;93848.94;5090508;28;20079;-82
2021/10/29 03:43:04;;;;;;;23.08;14.70;;;;;;;0.70;100.00;93869.16;5090788;28;20570;-81
2021/10/29 03:45:33;;;;;;;33.10;18.77;;;;;;;0.41;100.00;93847.97;5090682;28;20052;-81
2021/10/29 03:48:02;;;;;;;28.10;15.65;;;;;;;0.48;100.00;93865.94;5090440;28;20057;-81
2021/10/29 03:50:31;;;;;;;22.20;13.35;;;;;;;0.52;100.00;93874.88;5090345;28;20059;-81
2021/10/29 03:53:02;;;;;;;19.23;12.70;;;;;;;0.51;100.00;93890.97;5090072;28;20058;-80
2021/10/29 03:55:35;;;;;;;24.38;13.70;;;;;;;0.57;100.00;93882.84;5090504;28;20087;-80
2021/10/29 03:58:02;;;;;;;33.65;18.73;;;;;;;0.38;100.00;93851.56;5089863;28;20051;-80
2021/10/29 04:00:30;;;;;;;27.00;16.38;;;;;;;0.53;100.00;93866.34;5090501;28;20406;-81
2021/10/29 04:03:00;;;;;;;17.30;11.80;;;;;;;0.56;100.00;93862.75;5090053;28;20076;-81
2021/10/29 04:05:28;;;;;;;18.80;11.43;;;;;;;0.53;100.00;93848.66;5090329;28;20581;-80
2021/10/29 04:07:55;;;;;;;14.68;9.50;;;;;;;0.69;100.00;93872.63;5090203;28;20056;-80
2021/10/29 04:10:25;;;;;;;13.88;8.30;;;;;;;0.59;100.00;93858.22;5090083;28;20040;-80
2021/10/29 04:12:54;;;;;;;13.45;8.70;;;;;;;0.72;100.00;93867.28;5090502;28;20479;-80
2021/10/29 04:15:21;;;;;;;16.17;9.38;;;;;;;0.60;100.00;93856.50;5090025;28;20062;-81
2021/10/29 04:17:48;;;;;;;14.15;9.38;;;;;;;0.63;100.00;93867.16;5089731;28;20066;-80
2021/10/29 04:20:15;;;;;;;15.90;9.05;;;;;;;0.62;100.00;93868.09;5089971;28;20078;-80
2021/10/29 04:22:42;;;;;;;14.18;9.18;;;;;;;0.60;100.00;93869.94;5090239;28;20040;-80
2021/10/29 04:25:09;;;;;;;60.80;29.10;;;;;;;0.60;100.00;93871.69;5089928;28;20055;-80
2021/10/29 04:27:43;;;;;;;29.15;17.52;;;;;;;0.44;100.00;93857.81;5089288;28;20074;-80
2021/10/29 04:30:15;;;;;;;28.42;17.80;;;;;;;0.33;100.00;93841.03;5089898;28;20494;-80
2021/10/29 04:32:42;;;;;;;23.77;14.00;;;;;;;0.42;100.00;93852.09;5089692;28;20051;-79
2021/10/29 04:35:10;;;;;;;16.17;10.20;;;;;;;0.36;100.00;93860.19;5089863;28;20040;-80
2021/10/29 04:37:38;;;;;;;19.38;11.50;;;;;;;0.39;100.00;93854.88;5089804;28;20052;-80
2021/10/29 04:40:06;;;;;;;21.60;12.70;;;;;;;0.41;100.00;93855.53;5089546;28;20419;-80
2021/10/29 04:42:32;;;;;;;14.70;9.30;;;;;;;0.38;100.00;93853.28;5089625;28;20052;-79
2021/10/29 04:44:59;;;;;;;15.07;9.20;;;;;;;0.39;100.00;93854.88;5089536;28;20044;-79
2021/10/29 04:47:28;;;;;;;17.60;10.43;;;;;;;0.37;100.00;93865.13;5089242;28;20048;-80
2021/10/29 04:49:55;;;;;;;20.90;11.95;;;;;;;0.38;100.00;93863.41;5089344;28;20040;-80
2021/10/29 04:52:22;;;;;;;18.33;11.10;;;;;;;0.38;100.00;93864.19;5089405;28;20086;-80
2021/10/29 04:54:49;;;;;;;20.70;12.00;;;;;;;0.12;100.00;93838.63;5089384;28;20047;-80
2021/10/29 04:57:16;;;;;;;40.08;22.38;;;;;;;0.13;100.00;93858.69;5089354;28;20134;-81
2021/10/29 04:59:43;;;;;;;37.88;24.65;;;;;;;-0.10;100.00;93829.53;5089314;28;20040;-80
2021/10/29 05:02:10;;;;;;;35.88;21.85;;;;;;;0.10;100.00;93866.53;5089115;28;20048;-80
2021/10/29 05:04:38;;;;;;;35.60;20.15;;;;;;;0.13;100.00;93842.72;5089393;28;20052;-80
2021/10/29 05:07:05;;;;;;;37.97;20.77;;;;;;;0.15;100.00;93837.56;5089272;28;20522;-80
2021/10/29 05:09:32;;;;;;;34.47;20.98;;;;;;;0.31;100.00;93862.31;5089094;28;20442;-80
2021/10/29 05:11:59;;;;;;;35.13;21.42;;;;;;;0.32;100.00;93872.28;5088951;28;20051;-80
2021/10/29 05:14:25;;;;;;;49.90;28.95;;;;;;;-0.02;100.00;93837.25;5089262;28;20453;-80
2021/10/29 05:16:52;;;;;;;43.30;27.42;;;;;;;0.03;100.00;93857.88;5089237;28;20056;-80
2021/10/29 05:19:19;;;;;;;49.03;26.00;;;;;;;0.06;100.00;93871.97;5089141;28;20052;-80
2021/10/29 05:21:47;;;;;;;49.10;27.08;;;;;;;-0.10;100.00;93857.31;5089235;28;20055;-80
2021/10/29 05:24:15;;;;;;;49.25;25.63;;;;;;;0.04;100.00;93862.00;5089577;28;20400;-80
2021/10/29 05:26:43;;;;;;;50.55;29.58;;;;;;;0.02;100.00;93875.66;5088819;28;20063;-80
2021/10/29 05:29:10;;;;;;;43.53;27.40;;;;;;;0.09;100.00;93876.78;5089268;28;20048;-81
2021/10/29 05:31:37;;;;;;;45.05;26.35;;;;;;;0.19;100.00;93874.28;5089102;28;20087;-82
2021/10/29 05:34:04;;;;;;;50.53;31.13;;;;;;;0.10;100.00;93865.75;5089088;28;20105;-80
2021/10/29 05:36:31;;;;;;;56.42;33.67;;;;;;;0.13;100.00;93878.91;5088880;28;20515;-80
2021/10/29 05:38:59;;;;;;;65.32;35.58;;;;;;;0.26;100.00;93883.72;5089452;28;20056;-80
2021/10/29 05:41:26;;;;;;;56.95;33.45;;;;;;;0.29;100.00;93877.63;5093043;28;21417;-81
2021/10/29 05:43:53;;;;;;;64.38;34.22;;;;;;;0.39;100.00;93882.69;5092722;28;20059;-80
2021/10/29 05:46:22;;;;;;;59.92;31.48;;;;;;;0.43;100.00;93878.97;5092556;28;20055;-80
2021/10/29 05:48:49;;;;;;;63.13;32.03;;;;;;;0.50;100.00;93874.19;5092624;28;20052;-81
2021/10/29 05:51:16;;;;;;;60.63;33.38;;;;;;;0.40;100.00;93866.59;5092520;28;20044;-81
2021/10/29 05:53:54;;;;;;;51.30;31.20;;;;;;;0.51;100.00;93876.59;5092606;28;20499;-81
2021/10/29 05:56:22;;;;;;;57.97;32.05;;;;;;;0.56;100.00;93881.25;5092431;28;20048;-82
2021/10/29 05:58:49;;;;;;;61.78;33.25;;;;;;;0.64;100.00;93888.16;5087891;28;20083;-82
2021/10/29 06:01:16;;;;;;;61.45;36.00;;;;;;;0.53;100.00;93874.75;5090386;28;20520;-81
2021/10/29 06:03:43;;;;;;;60.35;33.28;;;;;;;0.66;100.00;93879.53;5092484;28;20145;-82
2021/10/29 06:06:10;;;;;;;62.38;32.72;;;;;;;0.72;100.00;93870.63;5092456;28;20048;-82
2021/10/29 06:08:37;;;;;;;58.40;34.85;;;;;;;0.87;100.00;93892.97;5091979;28;20593;-82
2021/10/29 06:11:05;;;;;;;45.88;28.15;;;;;;;0.89;100.00;93888.59;5092263;28;20048;-81
2021/10/29 06:13:33;;;;;;;61.50;34.35;;;;;;;0.84;100.00;93878.06;5091943;28;20051;-82
2021/10/29 06:16:00;;;;;;;46.38;28.42;;;;;;;0.84;100.00;93870.50;5092117;28;20052;-82
2021/10/29 06:18:27;;;;;;;44.55;28.00;;;;;;;1.14;100.00;93904.97;5091962;28;20046;-81
2021/10/29 06:20:56;;;;;;;47.40;27.50;;;;;;;1.22;100.00;93906.81;5092137;28;20410;-81
2021/10/29 06:23:28;;;;;;;42.55;26.27;;;;;;;1.31;100.00;93911.06;5091692;28;20534;-81
2021/10/29 06:25:59;;;;;;;40.05;23.85;;;;;;;1.41;100.00;93903.47;5092120;28;20097;-81
2021/10/29 06:28:28;;;;;;;50.50;28.98;;;;;;;1.56;100.00;93908.91;5092466;28;20067;-81
2021/10/29 06:30:57;;;;;;;48.42;31.05;;;;;;;1.62;100.00;93906.75;5092541;28;20487;-82
2021/10/29 06:33:24;;;;;;;48.92;28.92;;;;;;;1.76;100.00;93908.06;5091673;28;20044;-82
2021/10/29 06:35:54;;;;;;;50.10;31.60;;;;;;;1.68;100.00;93880.88;5091871;28;20084;-82
2021/10/29 06:38:21;;;;;;;63.72;35.95;;;;;;;1.76;100.00;93873.38;5091862;28;20052;-82
2021/10/29 06:40:49;;;;;;;57.28;34.40;;;;;;;2.07;100.00;93907.78;5091553;28;20056;-83
2021/10/29 06:43:22;;;;;;;60.08;34.10;;;;;;;2.10;100.00;93895.66;5091788;28;20048;-83
2021/10/29 06:46:09;;;;;;;53.10;31.42;;;;;;;2.20;100.00;93879.59;5091514;28;20117;-82
2021/10/29 06:48:48;;;;;;;52.10;30.50;;;;;;;2.23;100.00;93874.25;5091535;28;20040;-83
2021/10/29 06:59:36;;;;;;;37.97;23.05;;;;;;;2.71;100.00;93884.22;5091157;28;20102;-83
2021/10/29 07:02:16;;;;;;;38.95;23.17;;;;;;;2.80;100.00;93890.97;5091351;28;20063;-83
2021/10/29 07:05:10;;;;;;;37.47;23.88;;;;;;;2.72;100.00;93871.41;5091422;28;20055;-84
2021/10/29 07:40:44;;;;;;;23.10;13.90;;;;;;;4.90;100.00;93897.78;5090717;28;20058;-84
2021/10/29 07:43:15;;;;;;;26.67;13.48;;;;;;;4.96;100.00;93892.06;5090497;28;20050;-83
2021/10/29 07:45:43;;;;;;;22.40;13.00;;;;;;;4.95;98.13;93870.09;5090500;28;20058;-83
2021/10/29 07:48:10;;;;;;;30.58;15.50;;;;;;;5.09;97.09;93855.94;5090252;28;20040;-83
2021/10/29 07:50:37;;;;;;;27.08;16.33;;;;;;;5.57;96.95;93894.28;5090255;28;20158;-84
2021/10/29 07:53:05;;;;;;;34.97;17.05;;;;;;;5.69;96.88;93897.28;5090192;28;20391;-83
2021/10/29 07:55:32;;;;;;;33.50;18.00;;;;;;;5.70;97.69;93865.72;5090132;28;20547;-83
2021/10/29 07:58:02;;;;;;;64.68;40.58;;;;;;;6.04;96.26;93891.97;5090099;28;20078;-83
2021/10/29 08:00:30;;;;;;;32.28;18.73;;;;;;;5.97;96.76;93862.97;5090687;28;20051;-84
2021/10/29 08:02:57;;;;;;;33.78;19.40;;;;;;;6.47;94.04;93889.09;5089805;28;20066;-83
2021/10/29 08:05:25;;;;;;;34.35;19.15;;;;;;;6.57;95.43;93895.75;5090394;28;20044;-83
2021/10/29 08:07:52;;;;;;;30.15;17.23;;;;;;;6.64;94.11;93881.34;5090166;28;20410;-83
2021/10/29 08:10:20;;;;;;;30.85;16.40;;;;;;;6.95;92.20;93901.75;5086463;28;20048;-83
2021/10/29 08:12:47;;;;;;;29.55;15.43;;;;;;;7.06;91.57;93892.09;5087823;28;20142;-83
2021/10/29 08:15:14;;;;;;;27.60;14.70;;;;;;;7.18;90.23;93889.94;5089642;28;20055;-83
2021/10/29 08:17:42;;;;;;;26.92;14.23;;;;;;;7.25;88.16;93893.41;5089880;28;20052;-83
2021/10/29 08:20:12;;;;;;;28.75;12.93;;;;;;;7.38;86.82;93890.25;5089885;28;20052;-83
2021/10/29 08:22:40;;;;;;;23.33;12.35;;;;;;;7.61;87.29;93892.78;5089629;28;20051;-84
2021/10/29 08:25:09;;;;;;;21.10;11.50;;;;;;;7.73;84.96;93877.78;5089485;28;20050;-84
2021/10/29 08:27:37;;;;;;;23.73;10.60;;;;;;;7.95;83.94;93889.88;5089647;28;20056;-84
2021/10/29 08:48:49;;;;;;;20.13;10.32;;;;;;;9.82;80.56;93875.78;5147289;27;20403;-83
2021/10/29 08:51:16;;;;;;;16.85;9.32;;;;;;;9.82;78.22;93865.53;5147778;27;20092;-84
2021/10/29 08:53:44;;;;;;;16.80;9.63;;;;;;;9.76;77.54;93851.66;5147913;27;20039;-83
2021/10/29 08:56:11;;;;;;;20.33;10.57;;;;;;;9.75;78.67;93871.41;5147554;27;20046;-83
2021/10/29 08:59:02;;;;;;;19.52;10.68;;;;;;;9.96;77.10;93874.88;5147970;27;20429;-84
2021/10/29 09:01:46;;;;;;;20.67;10.85;;;;;;;10.21;80.06;93869.28;5147558;27;20047;-84
2021/10/29 09:04:15;;;;;;;21.55;10.48;;;;;;;10.47;79.75;93870.41;5147528;27;20039;-84
2021/10/29 09:06:51;;;;;;;17.40;9.38;;;;;;;10.71;79.31;93860.59;5147853;27;20529;-84
2021/10/29 09:09:41;;;;;;;19.30;9.65;;;;;;;10.81;73.89;93867.91;5147664;27;20070;-83
2021/10/29 09:31:24;;;;;;;16.08;7.95;;;;;;;11.03;69.16;93845.44;5147327;27;20112;-85
2021/10/29 09:33:52;;;;;;;13.85;8.07;;;;;;;10.93;69.86;93830.38;5147016;27;20092;-84
2021/10/29 09:36:31;;;;;;;29.80;15.90;;;;;;;10.78;69.34;93840.06;5146826;27;20074;-84
2021/10/29 09:39:00;;;;;;;12.02;7.82;;;;;;;10.91;71.91;93846.97;5147163;27;20062;-84
2021/10/29 09:41:29;;;;;;;15.15;7.40;;;;;;;10.94;68.71;93841.47;5147459;27;20035;-84
2021/10/29 09:44:04;;;;;;;12.20;7.45;;;;;;;11.33;73.73;93844.22;5146849;27;20042;-85
2021/10/29 09:46:42;;;;;;;11.25;7.63;;;;;;;11.63;72.57;93834.31;5146922;27;20103;-85
2021/10/29 09:49:19;;;;;;;12.80;7.30;;;;;;;11.90;66.67;93836.84;5136635;27;20050;-85
2021/10/29 09:52:08;;;;;;;17.70;8.18;;;;;;;12.02;65.13;93823.34;5133010;27;20551;-86
2021/10/29 09:54:44;;;;;;;10.93;6.72;;;;;;;12.31;63.46;93830.81;5132468;27;20051;-85
2021/10/29 09:57:11;;;;;;;12.40;7.07;;;;;;;12.35;61.61;93816.53;5132895;27;20047;-85
2021/10/29 09:59:38;;;;;;;12.40;6.53;;;;;;;12.63;64.85;93823.13;5132774;27;20039;-85
2021/10/29 10:02:06;;;;;;;11.68;7.00;;;;;;;12.47;61.77;93788.31;5130359;27;20053;-86
2021/10/29 10:04:35;;;;;;;12.70;6.78;;;;;;;12.72;60.55;93806.41;5131350;27;20058;-86
2021/10/29 10:07:04;;;;;;;13.25;7.03;;;;;;;12.83;60.52;93813.47;5132849;27;20055;-85
2021/10/29 10:09:34;;;;;;;12.13;7.72;;;;;;;12.91;59.95;93796.97;5132964;27;20094;-85
2021/10/29 10:12:02;;;;;;;11.70;7.13;;;;;;;12.92;65.71;93785.66;5133086;27;20043;-85
2021/10/29 10:14:29;;;;;;;9.77;6.55;;;;;;;13.13;61.88;93798.38;5132853;27;20134;-85
2021/10/29 10:16:57;;;;;;;10.80;6.10;;;;;;;13.38;64.07;93797.59;5132508;27;20058;-86
2021/10/29 10:19:23;;;;;;;13.93;6.38;;;;;;;13.42;60.41;93804.69;5132505;27;20593;-85
2021/10/29 10:21:54;;;;;;;12.98;6.32;;;;;;;13.30;60.55;93785.75;5132438;27;20051;-85
2021/10/29 10:24:28;;;;;;;160.70;68.45;;;;;;;13.42;59.10;93773.72;5132687;27;20043;-85
2021/10/29 10:27:21;;;;;;;26.67;13.23;;;;;;;13.16;59.52;93778.16;5132773;27;20054;-86
2021/10/29 10:29:58;;;;;;;15.25;8.45;;;;;;;13.25;63.59;93734.81;5132186;27;20039;-87
2021/10/29 10:41:27;;;;;;;11.23;6.50;;;;;;;14.03;61.42;93770.56;5048330;28;20057;-85
2021/10/29 10:44:18;;;;;;;11.02;6.60;;;;;;;14.28;59.16;93774.81;5131789;27;20035;-83
2021/10/29 10:46:48;;;;;;;8.88;6.38;;;;;;;13.83;55.42;93737.19;5131221;27;20738;-84
2021/10/29 10:49:21;;;;;;;16.83;8.70;;;;;;;13.78;55.93;93763.69;5129165;27;20055;-83
2021/10/29 10:52:03;;;;;;;11.50;6.25;;;;;;;13.26;58.61;93759.59;5131364;27;20442;-83
2021/10/29 10:54:34;;;;;;;12.27;7.32;;;;;;;13.35;59.21;93767.84;5131891;27;20058;-84
2021/10/29 10:57:19;;;;;;;10.88;6.78;;;;;;;13.42;60.68;93760.06;5131959;27;20051;-83
2021/10/29 11:00:04;;;;;;;9.93;6.43;;;;;;;13.83;63.61;93761.25;5131261;27;20054;-84
2021/10/29 11:11:13;;;;;;;10.98;5.32;;;;;;;13.95;57.22;93721.78;5131251;27;20069;-86
2021/10/29 11:13:59;;;;;;;7.55;5.20;;;;;;;14.02;59.47;93675.97;5130936;27;20044;-87
2021/10/29 11:16:33;;;;;;;11.48;6.03;;;;;;;13.54;54.89;93680.94;5131130;27;20137;-88
2021/10/29 11:19:08;;;;;;;29.95;13.95;;;;;;;13.19;54.40;93696.97;5131350;27;20072;-86
2021/10/29 11:21:45;;;;;;;16.37;6.70;;;;;;;13.48;54.15;93741.94;5131668;27;20039;-87
2021/10/29 11:24:14;;;;;;;10.00;5.75;;;;;;;13.30;53.83;93673.03;5131348;27;20043;-87
2021/10/29 11:26:44;;;;;;;9.98;5.63;;;;;;;13.48;54.00;93689.56;5131631;27;20162;-85
2021/10/29 11:29:13;;;;;;;17.50;6.85;;;;;;;13.88;53.94;93720.06;5131033;27;20099;-86
2021/10/29 11:31:44;;;;;;;11.05;6.15;;;;;;;14.20;58.16;93719.06;5131352;27;20043;-87
2021/10/29 11:34:14;;;;;;;11.18;6.53;;;;;;;14.15;57.93;93673.25;5131301;27;20047;-87
2021/10/29 11:36:44;;;;;;;13.35;7.10;;;;;;;14.40;55.42;93663.75;5131055;27;20146;-86
2021/10/29 11:39:13;;;;;;;11.57;6.05;;;;;;;14.57;53.49;93654.34;5131262;27;20051;-86
2021/10/29 11:41:43;;;;;;;11.18;6.63;;;;;;;14.96;51.21;93682.38;5130975;27;20100;-85
2021/10/29 11:44:12;;;;;;;8.02;5.05;;;;;;;13.64;50.14;93615.91;5131081;27;20055;-85
2021/10/29 11:46:41;;;;;;;10.75;5.75;;;;;;;14.62;55.01;93702.78;5131065;27;20054;-85
2021/10/29 11:49:09;;;;;;;9.20;5.65;;;;;;;14.55;54.86;93647.81;5131152;27;20130;-85
2021/10/29 11:51:38;;;;;;;8.07;5.00;;;;;;;14.49;53.43;93646.91;5131551;27;20126;-84
2021/10/29 11:54:15;;;;;;;7.85;4.63;;;;;;;14.78;53.53;93669.56;5131301;27;20039;-85
2021/10/29 11:56:46;;;;;;;8.57;4.50;;;;;;;14.69;51.54;93625.13;5131120;27;20926;-87
2021/10/29 12:05:46;;;;;;;9.77;4.82;;;;;;;15.32;54.66;93677.19;5130724;27;20112;-86
2021/10/29 12:07:35;;;;;;;9.85;4.90;;;;;;;15.34;53.52;93620.81;5130514;27;20525;-86
2021/10/29 12:10:05;;;;;;;12.82;8.65;;;;;;;15.73;51.67;93656.50;5130461;27;20059;-86
2021/10/29 12:12:34;;;;;;;14.68;8.38;;;;;;;15.91;49.47;93659.91;5126031;27;20050;-87
2021/10/29 12:15:08;;;;;;;10.45;6.45;;;;;;;15.47;49.46;93585.31;5128762;27;20133;-86
2021/10/29 12:17:45;;;;;;;7.28;4.30;;;;;;;16.05;48.81;93665.63;5129105;27;20054;-86
2021/10/29 12:20:17;;;;;;;8.52;4.95;;;;;;;15.67;45.11;93626.34;5130072;27;20505;-86
2021/10/29 12:22:46;;;;;;;11.25;5.55;;;;;;;15.88;46.23;93640.44;5129914;27;20080;-86
2021/10/29 12:25:20;;;;;;;13.63;8.85;;;;;;;15.94;49.74;93636.19;5130249;27;20089;-86
2021/10/29 12:27:53;;;;;;;8.60;6.65;;;;;;;15.84;49.50;93610.81;5130476;27;20051;-86
2021/10/29 12:30:28;;;;;;;6.68;4.60;;;;;;;15.71;48.19;93618.88;5129908;27;20047;-85
2021/10/29 13:03:45;;;;;;;9.48;4.93;;;;;;;15.67;48.81;93622.94;5129637;28;20058;-86
2021/10/29 13:06:16;;;;;;;11.95;4.82;;;;;;;15.29;47.84;93547.44;5129874;28;20062;-86
2021/10/29 13:08:48;;;;;;;7.15;4.10;;;;;;;15.61;48.19;93619.50;5125958;28;20043;-86
2021/10/29 13:11:16;;;;;;;8.40;5.30;;;;;;;15.50;49.36;93629.66;5128377;28;20381;-86
2021/10/29 13:13:45;;;;;;;6.82;4.13;;;;;;;15.27;48.92;93621.94;5131068;28;20086;-87
2021/10/29 13:16:14;;;;;;;11.10;5.38;;;;;;;14.86;51.12;93541.72;5130922;28;20054;-87
2021/10/29 13:19:12;;;;;;;7.50;4.65;;;;;;;15.41;51.95;93606.94;5129631;28;20062;-87
2021/10/29 13:35:39;;;;;;;9.32;3.85;;;;;;;15.09;48.30;93611.50;5106451;27;20167;-86
2021/10/29 13:54:44;;;;;;;8.13;4.22;;;;;;;14.43;48.23;93604.66;5131917;27;20043;-85
2021/10/29 13:57:45;;;;;;;9.52;5.55;;;;;;;14.36;49.98;93587.66;5133585;27;20047;-86
2021/10/29 14:03:22;;;;;;;8.30;5.13;;;;;;;14.35;52.58;93593.84;5133207;27;20518;-85
2021/10/29 14:17:08;;;;;;;13.25;6.75;;;;;;;13.43;51.29;93486.28;5133040;27;20054;-85
2021/10/29 14:30:37;;;;;;;12.23;5.57;;;;;;;13.74;51.66;93574.06;5132691;27;20205;-85
2021/10/29 14:33:06;;;;;;;15.75;8.40;;;;;;;13.95;51.89;93606.34;5132476;27;20047;-85
2021/10/29 14:35:36;;;;;;;15.23;7.35;;;;;;;13.94;53.40;93604.00;5132587;27;20134;-85
2021/10/29 14:38:09;;;;;;;15.65;7.13;;;;;;;13.93;54.05;93600.59;5131945;27;20062;-84
2021/10/29 14:40:39;;;;;;;12.77;6.18;;;;;;;13.82;53.50;93598.78;5132960;27;20411;-84
2021/10/29 14:43:11;;;;;;;19.25;8.20;;;;;;;13.85;54.77;93600.94;5132783;27;20051;-84